Time;durP1;ratioP1;P1;durP2;ratioP2;P2;SDS_P1;SDS_P2;PMS_P1;PMS_P2;Temp;Humidity;BMP_temperature;BMP_pressure;BME280_temperature;BME280_humidity;BME280_pressure;Samples;Min_cycle;Max_cycle;Signal;HPM_P1;HPM_P2
2021/11/19 00:02:18;;;;;;;;;83.00;72.50;9.70;66.00;;;;;;5097894;28;8748;-68
2021/11/19 00:04:44;;;;;;;;;81.50;69.50;9.50;66.50;;;;;;5098040;28;8748;-68
2021/11/19 00:07:11;;;;;;;;;85.50;75.75;9.60;66.20;;;;;;5097709;28;9528;-68
2021/11/19 00:09:38;;;;;;;;;81.50;65.25;9.40;67.10;;;;;;5097657;28;8760;-68
2021/11/19 00:12:05;;;;;;;;;85.75;72.50;9.30;67.10;;;;;;5097902;28;8756;-68
2021/11/19 00:14:31;;;;;;;;;77.50;63.00;9.00;68.30;;;;;;5097917;28;8858;-68
2021/11/19 00:17:05;;;;;;;;;79.75;68.25;9.10;68.50;;;;;;5097603;28;8760;-68
2021/11/19 00:19:35;;;;;;;;;80.50;67.50;9.30;67.50;;;;;;5097717;28;8937;-68
2021/11/19 00:22:01;;;;;;;;;79.75;65.25;9.30;67.30;;;;;;5097672;28;8764;-69
2021/11/19 00:24:27;;;;;;;;;79.50;65.75;9.20;67.90;;;;;;5097775;28;8885;-68
2021/11/19 00:26:54;;;;;;;;;83.25;71.50;9.20;67.60;;;;;;5097534;28;8763;-68
2021/11/19 00:29:21;;;;;;;;;85.75;77.75;9.30;67.30;;;;;;5097796;28;8803;-68
2021/11/19 00:31:47;;;;;;;;;75.00;61.50;9.50;66.30;;;;;;5079332;28;8795;-68
2021/11/19 00:34:14;;;;;;;;;78.75;64.50;9.30;66.80;;;;;;5097523;28;8848;-68
2021/11/19 00:36:40;;;;;;;;;83.75;71.25;9.30;66.90;;;;;;5097259;28;8794;-68
2021/11/19 00:39:10;;;;;;;;;88.25;74.00;9.20;67.20;;;;;;5097398;28;8882;-68
2021/11/19 00:41:37;;;;;;;;;83.00;68.50;9.10;67.40;;;;;;5097234;28;8759;-68
2021/11/19 00:44:05;;;;;;;;;92.75;86.75;9.40;66.50;;;;;;5097333;28;8783;-68
2021/11/19 00:46:31;;;;;;;;;92.25;86.75;9.40;66.20;;;;;;5096927;28;8768;-68
2021/11/19 00:48:57;;;;;;;;;91.25;81.50;9.20;66.60;;;;;;5096928;28;8811;-68
2021/11/19 00:51:30;;;;;;;;;74.00;61.25;9.10;66.70;;;;;;5096859;28;8827;-68
2021/11/19 00:53:58;;;;;;;;;82.25;69.75;9.00;67.40;;;;;;5096944;28;8764;-68
2021/11/19 00:56:28;;;;;;;;;78.00;63.75;8.90;67.80;;;;;;5096922;28;8889;-68
2021/11/19 00:58:54;;;;;;;;;82.00;65.75;9.10;67.10;;;;;;5097159;28;8957;-68
2021/11/19 01:01:29;;;;;;;;;76.50;62.75;8.90;67.70;;;;;;5096714;28;8763;-68
2021/11/19 01:03:55;;;;;;;;;77.75;63.50;9.10;67.00;;;;;;5096798;28;8760;-68
2021/11/19 01:06:21;;;;;;;;;76.50;62.50;8.90;67.80;;;;;;5096736;28;8848;-68
2021/11/19 01:08:47;;;;;;;;;78.25;64.50;8.70;68.40;;;;;;5096585;28;8756;-68
2021/11/19 01:11:19;;;;;;;;;80.25;65.00;8.80;67.80;;;;;;5096502;28;8895;-68
2021/11/19 01:13:47;;;;;;;;;77.50;63.50;8.50;68.90;;;;;;5096843;28;9406;-68
2021/11/19 01:16:26;;;;;;;;;77.00;62.00;8.60;68.80;;;;;;5096692;28;8795;-68
2021/11/19 01:18:55;;;;;;;;;79.50;64.50;8.60;68.70;;;;;;5096482;28;8748;-68
2021/11/19 01:21:32;;;;;;;;;70.50;59.00;8.60;68.50;;;;;;5096391;28;8771;-68
2021/11/19 01:24:00;;;;;;;;;79.00;64.50;8.70;68.30;;;;;;5096360;28;8788;-68
2021/11/19 01:26:31;;;;;;;;;74.00;61.00;8.60;68.50;;;;;;5096322;28;8866;-68
2021/11/19 01:29:00;;;;;;;;;80.75;65.50;8.50;68.40;;;;;;5096589;28;9487;-68
2021/11/19 01:31:58;;;;;;;;;78.00;64.00;8.60;68.50;;;;;;5096211;28;8942;-68
2021/11/19 01:34:26;;;;;;;;;75.00;62.00;8.70;68.00;;;;;;5096152;28;8906;-68
2021/11/19 01:36:53;;;;;;;;;79.75;64.00;8.50;68.50;;;;;;5096079;28;8865;-68
2021/11/19 01:39:22;;;;;;;;;74.75;62.25;8.50;68.70;;;;;;5096346;28;9483;-67
2021/11/19 01:41:55;;;;;;;;;76.50;62.00;8.40;68.70;;;;;;5095803;28;8794;-68
2021/11/19 01:44:38;;;;;;;;;75.25;61.50;8.20;69.30;;;;;;5096197;28;8870;-68
2021/11/19 01:47:07;;;;;;;;;73.75;61.00;8.20;69.80;;;;;;5095705;28;8791;-68
2021/11/19 01:49:33;;;;;;;;;77.67;64.33;8.40;69.00;;;;;;5096044;28;8782;-68
2021/11/19 01:52:01;;;;;;;;;71.50;59.25;8.50;68.40;;;;;;5095761;28;8771;-68
2021/11/19 01:54:36;;;;;;;;;73.00;60.75;8.30;68.90;;;;;;5096021;28;9582;-67
2021/11/19 01:57:24;;;;;;;;;76.00;62.75;8.50;68.10;;;;;;5095787;28;8771;-68
2021/11/19 02:00:00;;;;;;;;;69.75;56.75;8.40;68.10;;;;;;5095942;28;9433;-68
2021/11/19 02:02:38;;;;;;;;;76.00;62.50;8.20;68.90;;;;;;5095696;28;8760;-68
2021/11/19 02:05:06;;;;;;;;;77.00;63.00;8.20;69.20;;;;;;5095567;28;8800;-68
2021/11/19 02:07:45;;;;;;;;;76.00;62.75;7.90;70.60;;;;;;5095544;28;8748;-68
2021/11/19 02:10:11;;;;;;;;;72.50;58.00;7.80;70.90;;;;;;5077418;28;8811;-67
2021/11/19 02:13:03;;;;;;;;;71.50;59.25;7.90;70.60;;;;;;5077515;28;8802;-67
2021/11/19 02:15:33;;;;;;;;;74.00;60.50;8.10;69.80;;;;;;5057242;28;8772;-67
2021/11/19 02:18:07;;;;;;;;;68.50;57.50;8.10;70.00;;;;;;5095354;28;8799;-67
2021/11/19 02:20:38;;;;;;;;;68.50;56.75;7.80;71.00;;;;;;5095326;28;8789;-67
2021/11/19 02:23:10;;;;;;;;;68.25;56.25;7.70;72.10;;;;;;5095311;28;8913;-67
2021/11/19 02:25:45;;;;;;;;;68.75;57.75;7.80;71.00;;;;;;5095559;28;8755;-67
2021/11/19 02:28:17;;;;;;;;;77.00;62.75;7.90;70.80;;;;;;5095478;28;8791;-67
2021/11/19 02:31:06;;;;;;;;;74.25;60.00;8.10;70.20;;;;;;5095066;28;8799;-67
2021/11/19 02:33:33;;;;;;;;;78.50;64.00;8.50;68.80;;;;;;5095068;28;8883;-67
2021/11/19 02:36:06;;;;;;;;;76.25;61.25;8.30;68.80;;;;;;5095225;28;8764;-67
2021/11/19 02:38:42;;;;;;;;;74.25;61.25;8.20;69.20;;;;;;5095249;28;8795;-67
2021/11/19 02:41:10;;;;;;;;;76.25;63.00;8.10;69.40;;;;;;5094939;28;8772;-67
2021/11/19 02:43:42;;;;;;;;;71.25;59.50;8.00;69.70;;;;;;5095162;28;8778;-68
2021/11/19 02:46:26;;;;;;;;;77.50;63.25;8.00;69.80;;;;;;5094891;28;8780;-67
2021/11/19 02:48:52;;;;;;;;;79.00;63.75;8.40;68.60;;;;;;5094664;28;8792;-68
2021/11/19 02:51:19;;;;;;;;;78.25;64.50;8.50;67.90;;;;;;5094399;28;8884;-68
2021/11/19 02:53:49;;;;;;;;;74.75;60.75;8.70;67.30;;;;;;5094426;28;8834;-68
2021/11/19 02:56:16;;;;;;;;;76.00;62.50;8.80;66.70;;;;;;5094496;28;8772;-68
2021/11/19 02:58:47;;;;;;;;;74.75;62.00;8.90;65.90;;;;;;5095063;28;8923;-68
2021/11/19 03:01:26;;;;;;;;;69.75;57.75;8.60;66.80;;;;;;5095015;28;8790;-68
2021/11/19 03:04:08;;;;;;;;;69.25;58.00;9.00;66.10;;;;;;5094689;28;8779;-68
2021/11/19 03:06:44;;;;;;;;;64.00;54.25;8.80;66.00;;;;;;5094612;28;8740;-68
2021/11/19 03:09:12;;;;;;;;;69.50;56.75;8.80;66.50;;;;;;5094550;28;8763;-68
2021/11/19 03:11:39;;;;;;;;;68.75;57.00;8.70;66.40;;;;;;5094658;28;8787;-68
2021/11/19 03:14:06;;;;;;;;;68.25;56.50;8.70;66.70;;;;;;5094452;28;8948;-68
2021/11/19 03:16:33;;;;;;;;;57.75;48.50;8.50;68.20;;;;;;5094713;28;8751;-68
2021/11/19 03:18:59;;;;;;;;;66.00;53.25;8.40;67.80;;;;;;5094798;28;9370;-68
2021/11/19 03:21:25;;;;;;;;;53.00;46.00;8.40;68.20;;;;;;5094459;28;8768;-68
2021/11/19 03:23:53;;;;;;;;;73.25;60.00;8.10;69.40;;;;;;5094447;28;8760;-68
2021/11/19 03:26:19;;;;;;;;;58.00;48.75;8.00;69.80;;;;;;5094391;28;8785;-68
2021/11/19 03:28:45;;;;;;;;;69.00;56.50;7.90;70.50;;;;;;5094908;28;8803;-68
2021/11/19 03:31:14;;;;;;;;;68.50;57.25;7.80;70.90;;;;;;5094317;28;9425;-68
2021/11/19 03:33:42;;;;;;;;;69.75;57.75;7.80;71.10;;;;;;5094290;28;8878;-68
2021/11/19 03:36:10;;;;;;;;;70.50;58.75;7.90;70.60;;;;;;5094308;28;8834;-68
2021/11/19 03:38:38;;;;;;;;;64.50;55.50;7.90;70.30;;;;;;5094531;28;8756;-68
2021/11/19 03:41:05;;;;;;;;;68.25;57.00;8.10;69.50;;;;;;5094250;28;8826;-68
2021/11/19 03:43:57;;;;;;;;;70.50;58.25;8.20;69.00;;;;;;5094496;28;8783;-68
2021/11/19 03:46:38;;;;;;;;;66.00;55.50;8.30;68.60;;;;;;5094273;28;8794;-67
2021/11/19 03:49:05;;;;;;;;;68.50;56.75;8.10;69.10;;;;;;5094097;28;8832;-68
2021/11/19 03:51:38;;;;;;;;;68.00;57.25;8.30;68.30;;;;;;5094070;28;8811;-68
2021/11/19 03:54:05;;;;;;;;;72.50;58.75;8.40;67.80;;;;;;5094377;28;8763;-68
2021/11/19 03:56:32;;;;;;;;;69.75;58.25;8.30;68.30;;;;;;5094362;28;9530;-68
2021/11/19 03:58:58;;;;;;;;;73.25;60.75;8.30;68.20;;;;;;5094370;28;8868;-68
2021/11/19 04:01:38;;;;;;;;;64.50;55.00;8.50;67.70;;;;;;5094035;28;8780;-68
2021/11/19 04:04:05;;;;;;;;;74.50;60.50;8.40;68.10;;;;;;5094343;28;8906;-68
2021/11/19 04:06:32;;;;;;;;;76.50;63.75;8.20;68.40;;;;;;5096348;28;8859;-68
2021/11/19 04:08:58;;;;;;;;;77.25;63.00;8.30;68.60;;;;;;5097782;28;8763;-68
2021/11/19 04:11:25;;;;;;;;;78.25;63.25;8.70;66.60;;;;;;5097689;28;9444;-68
2021/11/19 04:13:51;;;;;;;;;77.00;62.25;9.00;65.80;;;;;;5098013;28;8756;-68
2021/11/19 04:16:29;;;;;;;;;78.75;63.75;9.20;64.80;;;;;;5097949;28;8850;-67
2021/11/19 04:18:55;;;;;;;;;69.75;57.75;9.00;65.10;;;;;;5097763;28;8771;-68
2021/11/19 04:21:22;;;;;;;;;76.25;62.50;8.70;66.00;;;;;;5097669;28;9386;-68
2021/11/19 04:23:52;;;;;;;;;79.50;64.00;8.90;65.80;;;;;;5097626;28;8736;-68
2021/11/19 04:26:19;;;;;;;;;75.50;62.00;9.00;65.40;;;;;;5097583;28;8766;-67
2021/11/19 04:28:46;;;;;;;;;70.50;59.25;9.10;64.60;;;;;;5097669;28;8804;-69
2021/11/19 04:31:14;;;;;;;;;73.50;59.75;9.00;65.30;;;;;;5097383;28;8804;-68
2021/11/19 04:33:41;;;;;;;;;71.50;60.00;9.00;65.00;;;;;;5097341;28;8767;-68
2021/11/19 04:36:07;;;;;;;;;62.75;52.75;9.00;65.30;;;;;;5097343;28;8756;-67
2021/11/19 04:38:33;;;;;;;;;60.00;51.50;8.60;66.50;;;;;;5096955;28;8792;-67
2021/11/19 04:40:59;;;;;;;;;58.50;50.00;8.60;66.40;;;;;;5097526;28;8776;-67
2021/11/19 04:43:26;;;;;;;;;65.00;55.50;8.70;66.30;;;;;;5097347;28;8764;-68
2021/11/19 04:45:53;;;;;;;;;64.75;55.00;9.00;65.30;;;;;;5097031;28;8851;-67
2021/11/19 04:48:20;;;;;;;;;61.25;52.75;9.10;65.00;;;;;;5096946;28;9528;-67
2021/11/19 04:50:48;;;;;;;;;59.50;50.25;9.00;65.30;;;;;;5096999;28;8810;-68
2021/11/19 04:53:17;;;;;;;;;66.75;56.00;8.90;65.60;;;;;;5096946;28;8775;-67
2021/11/19 04:55:44;;;;;;;;;65.75;54.75;8.90;65.50;;;;;;5097018;28;8752;-67
2021/11/19 04:58:10;;;;;;;;;66.25;55.00;8.70;66.00;;;;;;5097032;28;8910;-67
2021/11/19 05:00:44;;;;;;;;;59.25;50.25;8.40;67.10;;;;;;5096800;28;8772;-67
2021/11/19 05:03:10;;;;;;;;;63.00;53.50;8.50;67.10;;;;;;5096898;28;8736;-67
2021/11/19 05:05:37;;;;;;;;;61.50;53.00;8.60;66.50;;;;;;5096799;28;8854;-69
2021/11/19 05:08:05;;;;;;;;;56.75;48.00;8.90;65.80;;;;;;5096877;28;8768;-67
2021/11/19 05:10:32;;;;;;;;;62.00;53.00;8.80;65.50;;;;;;5096868;28;8811;-68
2021/11/19 05:13:00;;;;;;;;;64.00;54.00;9.10;65.00;;;;;;5096364;28;8760;-68
2021/11/19 05:15:28;;;;;;;;;63.25;53.50;9.10;64.50;;;;;;5096483;28;8829;-68
2021/11/19 05:17:54;;;;;;;;;72.25;59.25;9.00;64.60;;;;;;5095414;28;8795;-68
2021/11/19 05:20:22;;;;;;;;;65.00;55.00;9.00;65.20;;;;;;5096472;28;8790;-67
2021/11/19 05:22:49;;;;;;;;;65.50;55.25;9.10;64.20;;;;;;5096481;28;8760;-68
2021/11/19 05:25:18;;;;;;;;;63.75;53.75;9.10;64.60;;;;;;5096429;28;8736;-68
2021/11/19 05:27:44;;;;;;;;;59.75;49.75;9.30;63.70;;;;;;5096322;28;8820;-68
2021/11/19 05:30:12;;;;;;;;;60.75;51.50;9.10;64.40;;;;;;5096229;28;8864;-68
2021/11/19 05:32:38;;;;;;;;;68.00;55.75;8.80;65.40;;;;;;5096194;28;8760;-67
2021/11/19 05:35:05;;;;;;;;;58.50;50.50;8.80;65.60;;;;;;5096138;28;8779;-67
2021/11/19 05:37:31;;;;;;;;;60.75;52.50;8.60;66.20;;;;;;5096019;28;8756;-70
2021/11/19 05:39:58;;;;;;;;;62.75;53.25;8.60;66.70;;;;;;5093575;28;8772;-68
2021/11/19 05:42:23;;;;;;;;;59.50;50.00;8.60;66.30;;;;;;5094151;28;8827;-68
2021/11/19 05:44:49;;;;;;;;;59.75;50.25;8.80;66.00;;;;;;5095922;28;9465;-66
2021/11/19 05:47:15;;;;;;;;;57.00;49.75;8.70;65.90;;;;;;5095152;28;9453;-67
2021/11/19 05:49:42;;;;;;;;;58.00;50.00;8.80;65.70;;;;;;5095770;28;9425;-69
2021/11/19 05:52:10;;;;;;;;;55.25;47.75;8.60;66.30;;;;;;5095122;28;8768;-68
2021/11/19 05:54:37;;;;;;;;;66.25;55.50;8.70;66.30;;;;;;5094430;28;8797;-68
2021/11/19 05:57:06;;;;;;;;;83.25;68.25;8.70;66.30;;;;;;5092826;28;8783;-73
2021/11/19 05:59:32;;;;;;;;;97.75;87.00;8.70;66.10;;;;;;5092996;28;8763;-70
2021/11/19 06:01:58;;;;;;;;;95.50;89.50;8.50;66.70;;;;;;5094740;28;8775;-70
2021/11/19 06:04:25;;;;;;;;;96.75;87.75;8.70;66.50;;;;;;5094358;28;8799;-66
2021/11/19 06:06:51;;;;;;;;;88.50;71.00;8.90;65.90;;;;;;5095212;28;8780;-65
2021/11/19 06:09:26;;;;;;;;;81.75;65.50;8.80;65.90;;;;;;5095281;28;8783;-67
2021/11/19 06:11:54;;;;;;;;;78.75;64.50;9.00;65.00;;;;;;5095177;28;8815;-67
2021/11/19 06:14:37;;;;;;;;;83.75;69.75;9.10;64.70;;;;;;5095317;28;8794;-72
2021/11/19 06:17:10;;;;;;;;;83.00;67.00;8.90;65.40;;;;;;5095304;28;8798;-63
2021/11/19 06:19:41;;;;;;;;;82.00;66.75;9.10;64.60;;;;;;5095398;28;8882;-63
2021/11/19 06:22:11;;;;;;;;;93.25;83.00;9.20;64.50;;;;;;5095172;28;8837;-64
2021/11/19 06:24:42;;;;;;;;;89.50;80.00;9.10;64.80;;;;;;5095133;28;8775;-63
2021/11/19 06:27:11;;;;;;;;;91.00;81.75;9.20;64.10;;;;;;5095064;28;8796;-63
2021/11/19 06:29:37;;;;;;;;;88.00;70.50;8.80;65.40;;;;;;5094850;28;8756;-63
2021/11/19 06:32:03;;;;;;;;;89.25;81.50;9.10;65.30;;;;;;5094846;28;8772;-64
2021/11/19 06:34:29;;;;;;;;;101.00;95.50;9.10;65.10;;;;;;5095200;28;8790;-64
2021/11/19 06:36:56;;;;;;;;;124.75;120.25;9.40;64.20;;;;;;5094952;28;8830;-63
2021/11/19 06:39:24;;;;;;;;;97.50;88.00;9.40;63.80;;;;;;5094963;28;8798;-63
2021/11/19 06:41:50;;;;;;;;;99.50;87.00;9.40;63.60;;;;;;5094903;28;8767;-63
2021/11/19 06:44:16;;;;;;;;;102.75;97.25;9.40;63.80;;;;;;5094701;28;8775;-63
2021/11/19 06:46:43;;;;;;;;;97.00;90.75;9.10;64.80;;;;;;5095136;28;8780;-65
2021/11/19 06:49:10;;;;;;;;;89.75;78.25;9.20;65.10;;;;;;5094718;28;8796;-64
2021/11/19 06:51:37;;;;;;;;;81.50;67.00;9.00;65.10;;;;;;5094697;28;8799;-64
2021/11/19 06:54:04;;;;;;;;;84.75;71.50;9.20;64.90;;;;;;5094696;28;8784;-63
2021/11/19 06:56:30;;;;;;;;;77.75;63.00;9.30;64.30;;;;;;5094682;28;8883;-63
2021/11/19 06:58:57;;;;;;;;;87.50;76.00;9.30;64.50;;;;;;5094986;28;9480;-63
2021/11/19 07:01:23;;;;;;;;;89.25;79.75;9.10;65.00;;;;;;5094592;28;9495;-64
2021/11/19 07:03:48;;;;;;;;;91.75;84.50;9.20;65.00;;;;;;5094553;28;8747;-64
2021/11/19 07:06:15;;;;;;;;;90.75;84.00;8.90;65.80;;;;;;5094447;28;8835;-65
2021/11/19 07:08:41;;;;;;;;;93.00;89.00;8.70;67.00;;;;;;5094499;28;8752;-64
2021/11/19 07:11:11;;;;;;;;;84.25;64.25;9.00;66.70;;;;;;5094659;28;8787;-64
2021/11/19 07:13:37;;;;;;;;;82.25;66.75;9.30;65.10;;;;;;5094612;28;8833;-64
2021/11/19 07:16:03;;;;;;;;;79.25;68.00;9.40;64.90;;;;;;5094467;28;8776;-64
2021/11/19 07:18:29;;;;;;;;;85.00;72.00;9.60;64.30;;;;;;5094405;28;8778;-64
2021/11/19 07:20:55;;;;;;;;;82.25;67.50;9.40;64.40;;;;;;5094624;28;8764;-60
2021/11/19 07:23:22;;;;;;;;;79.50;65.00;9.30;65.40;;;;;;5094468;28;8760;-64
2021/11/19 07:25:49;;;;;;;;;84.50;72.25;9.20;65.70;;;;;;5094595;28;9437;-64
2021/11/19 07:28:16;;;;;;;;;85.75;76.00;9.50;65.10;;;;;;5094509;28;8906;-63
2021/11/19 07:30:46;;;;;;;;;85.50;75.25;9.70;64.50;;;;;;5094199;28;8792;-63
2021/11/19 07:33:12;;;;;;;;;81.25;68.50;9.60;64.80;;;;;;5094289;28;8848;-63
2021/11/19 07:35:40;;;;;;;;;83.75;70.25;9.70;64.60;;;;;;5094287;28;8787;-63
2021/11/19 07:38:07;;;;;;;;;76.25;62.50;9.90;64.20;;;;;;5094519;28;8794;-63
2021/11/19 07:40:37;;;;;;;;;84.50;73.00;9.90;64.40;;;;;;5095350;28;9475;-63
2021/11/19 07:43:03;;;;;;;;;85.75;76.75;10.40;63.20;;;;;;5098445;28;8763;-63
2021/11/19 07:45:35;;;;;;;;;82.50;72.00;10.70;62.40;;;;;;5098225;28;9719;-64
2021/11/19 07:48:06;;;;;;;;;84.00;72.25;11.10;61.30;;;;;;5098035;28;8795;-64
2021/11/19 07:50:33;;;;;;;;;79.50;67.25;11.50;60.30;;;;;;5098027;28;8796;-63
2021/11/19 07:52:58;;;;;;;;;71.75;58.50;11.40;60.40;;;;;;5098123;28;8870;-63
2021/11/19 07:55:25;;;;;;;;;60.25;51.25;11.50;60.00;;;;;;5098127;28;8755;-64
2021/11/19 07:57:52;;;;;;;;;60.00;50.75;11.40;60.10;;;;;;5098258;28;8792;-63
2021/11/19 08:00:24;;;;;;;;;51.00;44.25;11.30;60.90;;;;;;5098236;28;8882;-64
2021/11/19 08:02:50;;;;;;;;;50.75;43.50;11.30;61.00;;;;;;5098153;28;9410;-64
2021/11/19 08:05:17;;;;;;;;;36.25;35.00;11.20;61.50;;;;;;5098150;28;8771;-62
2021/11/19 08:07:42;;;;;;;;;35.50;34.50;11.40;61.10;;;;;;5098008;28;9413;-65
2021/11/19 08:10:09;;;;;;;;;45.50;39.75;11.50;60.70;;;;;;5097922;28;8887;-65
2021/11/19 08:12:35;;;;;;;;;42.75;38.00;11.20;61.20;;;;;;5097669;28;8766;-62
2021/11/19 08:15:02;;;;;;;;;52.25;44.50;10.90;62.40;;;;;;5097729;28;8841;-62
2021/11/19 08:17:33;;;;;;;;;43.50;39.25;11.20;61.90;;;;;;5097723;28;8850;-64
2021/11/19 08:20:00;;;;;;;;;48.75;42.00;11.30;61.60;;;;;;5097745;28;8867;-63
2021/11/19 08:22:27;;;;;;;;;47.25;41.75;11.20;61.40;;;;;;5097514;28;8764;-64
2021/11/19 08:24:53;;;;;;;;;43.75;38.50;11.20;61.80;;;;;;5079735;28;9390;-62
2021/11/19 08:27:26;;;;;;;;;49.00;42.25;11.40;61.20;;;;;;5097490;28;8826;-62
2021/11/19 08:29:55;;;;;;;;;45.50;40.50;11.80;60.30;;;;;;5097599;28;8767;-63
2021/11/19 08:32:23;;;;;;;;;45.25;41.00;11.90;59.80;;;;;;5097345;28;8744;-64
2021/11/19 08:34:50;;;;;;;;;52.00;44.25;11.80;60.00;;;;;;5097531;28;9476;-63
2021/11/19 08:37:19;;;;;;;;;51.25;44.75;12.00;59.60;;;;;;5097523;28;8751;-63
2021/11/19 08:39:44;;;;;;;;;41.50;38.00;11.80;60.20;;;;;;5097260;28;8848;-63
2021/11/19 08:42:11;;;;;;;;;44.50;39.25;12.00;59.60;;;;;;5097349;28;8775;-64
2021/11/19 08:44:40;;;;;;;;;44.00;39.25;12.10;58.90;;;;;;5097114;28;8752;-65
2021/11/19 08:47:08;;;;;;;;;41.25;38.25;12.20;58.90;;;;;;5096754;28;8786;-66
2021/11/19 08:49:34;;;;;;;;;42.25;38.00;12.00;59.10;;;;;;5097231;28;8764;-65
2021/11/19 08:52:03;;;;;;;;;42.25;37.50;12.10;59.30;;;;;;5095851;28;8827;-63
2021/11/19 08:54:29;;;;;;;;;42.00;38.00;12.00;59.20;;;;;;5097209;28;8764;-63
2021/11/19 08:56:58;;;;;;;;;45.00;38.50;12.20;58.90;;;;;;5096917;28;8859;-63
2021/11/19 08:59:29;;;;;;;;;51.75;43.00;12.40;58.10;;;;;;5096702;28;8816;-63
2021/11/19 09:01:58;;;;;;;;;55.25;46.75;12.40;58.40;;;;;;5096756;28;8826;-65
2021/11/19 09:04:26;;;;;;;;;47.50;41.25;12.10;59.10;;;;;;5096710;28;8902;-63
2021/11/19 09:06:53;;;;;;;;;41.75;37.00;12.20;58.80;;;;;;5096756;28;8764;-64
2021/11/19 09:09:19;;;;;;;;;45.25;40.25;11.90;59.20;;;;;;5096996;28;8760;-63
2021/11/19 09:11:47;;;;;;;;;48.00;41.75;11.90;59.80;;;;;;5096755;28;9453;-62
2021/11/19 09:14:13;;;;;;;;;39.75;36.25;12.20;59.50;;;;;;5096850;28;8866;-64
2021/11/19 09:16:45;;;;;;;;;40.25;36.50;12.00;59.10;;;;;;5096756;28;8752;-63
2021/11/19 09:19:18;;;;;;;;;40.75;36.00;11.90;59.40;;;;;;5096821;28;9437;-63
2021/11/19 09:22:13;;;;;;;;;35.50;33.25;11.80;59.60;;;;;;5096534;28;8836;-63
2021/11/19 09:24:40;;;;;;;;;36.00;34.75;12.00;59.70;;;;;;5096646;28;8787;-63
2021/11/19 09:27:11;;;;;;;;;44.00;38.75;12.30;59.70;;;;;;5096408;28;8878;-63
2021/11/19 09:29:42;;;;;;;;;33.33;32.33;12.80;58.10;;;;;;5096311;28;8806;-64
2021/11/19 09:32:09;;;;;;;;;39.33;36.33;12.70;57.10;;;;;;5096157;28;8888;-64
2021/11/19 09:34:38;;;;;;;;;42.50;38.75;12.80;56.80;;;;;;5096213;28;8902;-64
2021/11/19 09:37:06;;;;;;;;;38.00;35.00;13.30;56.40;;;;;;5096102;28;8894;-64
2021/11/19 09:39:32;;;;;;;;;37.50;34.75;13.60;54.50;;;;;;5096059;28;8790;-63
2021/11/19 09:42:06;;;;;;;;;34.67;32.67;13.30;55.00;;;;;;5096107;28;8768;-63
2021/11/19 09:45:09;;;;;;;;;43.00;40.00;13.40;54.70;;;;;;5096293;28;8764;-63
2021/11/19 09:48:09;;;;;;;;;41.00;37.00;13.70;54.10;;;;;;5096004;28;8783;-63
2021/11/19 09:50:53;;;;;;;;;38.00;36.00;13.80;53.80;;;;;;5096028;28;8799;-63
2021/11/19 09:53:46;;;;;;;;;31.00;30.67;13.80;53.20;;;;;;5095860;28;8780;-64
2021/11/19 09:56:18;;;;;;;;;36.33;35.33;14.10;52.60;;;;;;5095878;28;8764;-63
2021/11/19 09:59:09;;;;;;;;;31.33;31.33;14.20;52.50;;;;;;5096083;28;8811;-63
2021/11/19 10:01:53;;;;;;;;;34.33;32.67;13.80;52.00;;;;;;5095900;28;8755;-63
2021/11/19 10:04:35;;;;;;;;;35.67;33.00;13.70;52.80;;;;;;5095462;28;9437;-63
2021/11/19 10:07:33;;;;;;;;;40.00;36.00;13.90;52.30;;;;;;5095382;28;8767;-63
2021/11/19 10:10:23;;;;;;;;;37.33;34.00;13.90;52.30;;;;;;5012684;28;8814;-63
2021/11/19 10:12:55;;;;;;;;;44.00;38.00;13.90;52.60;;;;;;5013387;28;9637;-64
2021/11/19 10:15:32;;;;;;;;;38.00;35.00;14.00;51.90;;;;;;5013292;28;8782;-63
2021/11/19 10:18:04;;;;;;;;;34.33;33.33;13.90;51.90;;;;;;5013303;28;8777;-65
2021/11/19 10:20:49;;;;;;;;;46.50;39.00;13.90;51.80;;;;;;5013207;28;8805;-63
2021/11/19 10:23:35;;;;;;;;;38.00;35.00;13.60;52.90;;;;;;5013309;28;8777;-64
2021/11/19 10:26:04;;;;;;;;;38.33;35.33;13.80;52.10;;;;;;5013226;28;8785;-63
2021/11/19 10:29:05;;;;;;;;;36.00;34.00;13.60;52.50;;;;;;5013243;28;8820;-63
2021/11/19 10:31:31;;;;;;;;;41.00;36.67;13.90;51.60;;;;;;5012845;28;8948;-63
2021/11/19 10:34:25;;;;;;;;;40.67;37.67;13.80;52.60;;;;;;5012920;28;8793;-65
2021/11/19 10:37:26;;;;;;;;;37.67;34.00;13.90;52.60;;;;;;5004865;28;8924;-63
2021/11/19 10:40:29;;;;;;;;;35.33;33.33;14.10;51.90;;;;;;4986046;28;8816;-64
2021/11/19 10:43:13;;;;;;;;;37.00;34.00;14.60;50.70;;;;;;5012797;28;8781;-62
2021/11/19 10:46:00;;;;;;;;;42.00;37.33;14.70;50.10;;;;;;5028145;28;8760;-66
2021/11/19 10:48:55;;;;;;;;;32.67;32.33;14.10;50.50;;;;;;5094661;28;8796;-64
2021/11/19 10:51:38;;;;;;;;;42.33;37.33;13.60;51.70;;;;;;5056479;28;8795;-64
2021/11/19 10:54:35;;;;;;;;;33.00;31.00;13.70;52.30;;;;;;5094729;28;8763;-63
2021/11/19 10:57:11;;;;;;;;;40.25;36.00;13.50;52.40;;;;;;5094510;28;8962;-63
2021/11/19 10:59:43;;;;;;;;;43.75;37.00;13.40;53.20;;;;;;5094666;28;8783;-64
2021/11/19 11:02:12;;;;;;;;;39.33;36.33;13.90;52.30;;;;;;5094644;28;8848;-64
2021/11/19 11:04:38;;;;;;;;;45.50;39.25;14.10;51.70;;;;;;5094593;28;8898;-64
2021/11/19 11:07:09;;;;;;;;;40.00;36.33;13.60;52.90;;;;;;5094757;28;8783;-64
2021/11/19 11:09:48;;;;;;;;;35.00;33.00;13.60;53.40;;;;;;5094407;28;8776;-63
2021/11/19 11:12:13;;;;;;;;;40.33;36.00;13.60;53.00;;;;;;5094392;28;8921;-64
2021/11/19 11:14:43;;;;;;;;;46.00;38.25;13.60;53.40;;;;;;5094159;28;8890;-64
2021/11/19 11:17:27;;;;;;;;;40.00;36.33;14.20;52.40;;;;;;5093952;28;8784;-64
2021/11/19 11:19:58;;;;;;;;;36.33;32.33;14.30;51.80;;;;;;5094663;28;9581;-64
2021/11/19 11:22:28;;;;;;;;;37.00;34.33;14.60;51.60;;;;;;5094252;28;8791;-64
2021/11/19 11:25:10;;;;;;;;;43.33;38.00;14.70;51.10;;;;;;5094388;28;8788;-63
2021/11/19 11:28:02;;;;;;;;;38.33;35.00;14.50;51.60;;;;;;5094574;28;8760;-66
2021/11/19 11:30:50;;;;;;;;;34.00;31.67;14.40;51.30;;;;;;5093865;28;8791;-63
2021/11/19 11:33:30;;;;;;;;;34.33;32.33;14.30;52.00;;;;;;5094262;28;8779;-64
2021/11/19 11:36:12;;;;;;;;;42.00;36.67;14.20;52.40;;;;;;5094140;28;8752;-64
2021/11/19 11:38:47;;;;;;;;;50.50;43.25;14.30;52.40;;;;;;5094341;28;8752;-63
2021/11/19 11:41:48;;;;;;;;;45.33;39.00;14.50;52.10;;;;;;5094254;28;8763;-62
2021/11/19 11:44:40;;;;;;;;;44.67;38.67;14.70;50.40;;;;;;5011953;28;8806;-64
2021/11/19 11:47:16;;;;;;;;;54.00;45.50;14.10;51.80;;;;;;5011902;28;8785;-63
2021/11/19 11:49:56;;;;;;;;;46.00;39.00;13.70;53.50;;;;;;5012193;28;8903;-63
2021/11/19 11:52:36;;;;;;;;;45.00;39.33;13.60;53.90;;;;;;5012342;28;8888;-64
2021/11/19 11:55:20;;;;;;;;;49.50;42.25;13.30;54.80;;;;;;5012155;28;8797;-63
2021/11/19 11:57:52;;;;;;;;;48.75;42.00;13.20;55.40;;;;;;5012073;28;8824;-63
2021/11/19 12:00:46;;;;;;;;;56.25;47.50;13.30;54.90;;;;;;5012024;28;8809;-66
2021/11/19 12:03:31;;;;;;;;;49.00;42.00;13.30;55.00;;;;;;5011965;28;9497;-63
2021/11/19 12:06:15;;;;;;;;;55.25;46.75;13.10;54.90;;;;;;5011951;28;8819;-63
2021/11/19 12:08:53;;;;;;;;;56.50;47.25;13.00;55.80;;;;;;5011835;28;8843;-63
2021/11/19 12:11:40;;;;;;;;;53.25;44.75;13.00;55.90;;;;;;5011734;28;8813;-64
2021/11/19 12:14:12;;;;;;;;;55.00;47.50;13.10;55.30;;;;;;5011801;28;8978;-64
2021/11/19 12:17:01;;;;;;;;;53.50;45.25;13.10;55.20;;;;;;5011753;28;9415;-63
2021/11/19 12:20:11;;;;;;;;;46.00;41.00;13.00;55.40;;;;;;5039896;28;8878;-65
2021/11/19 12:23:03;;;;;;;;;45.00;39.25;13.00;55.50;;;;;;5085986;28;8747;-63
2021/11/19 12:26:01;;;;;;;;;47.25;41.00;12.80;55.90;;;;;;5093996;28;8772;-63
2021/11/19 12:28:38;;;;;;;;;41.50;37.25;12.70;56.50;;;;;;5097621;28;8776;-63
2021/11/19 12:31:28;;;;;;;;;52.25;43.50;12.80;56.40;;;;;;5097477;28;8826;-64
2021/11/19 12:34:01;;;;;;;;;58.75;48.25;12.90;55.40;;;;;;5097336;28;8775;-63
2021/11/19 12:36:38;;;;;;;;;52.75;44.75;12.70;56.00;;;;;;5097196;28;8784;-64
2021/11/19 12:39:08;;;;;;;;;51.50;42.75;12.70;56.50;;;;;;5097092;28;8788;-63
2021/11/19 12:42:09;;;;;;;;;53.25;45.50;12.70;56.10;;;;;;5097304;28;8767;-64
2021/11/19 12:44:49;;;;;;;;;54.25;46.25;12.90;56.00;;;;;;5097415;28;8768;-64
2021/11/19 12:47:31;;;;;;;;;61.25;52.25;13.00;55.70;;;;;;5096747;28;8798;-64
2021/11/19 12:50:34;;;;;;;;;52.00;44.25;12.90;56.30;;;;;;5096982;28;8778;-63
2021/11/19 12:53:24;;;;;;;;;55.25;46.50;12.90;55.90;;;;;;5097241;28;8767;-63
2021/11/19 12:56:11;;;;;;;;;53.00;45.50;12.90;55.90;;;;;;5097011;28;8790;-64
2021/11/19 12:58:58;;;;;;;;;54.50;47.00;13.00;55.80;;;;;;5097063;28;8899;-64
2021/11/19 13:01:45;;;;;;;;;60.25;50.00;13.00;55.70;;;;;;5096696;28;8795;-65
2021/11/19 13:04:17;;;;;;;;;59.00;49.50;12.90;56.10;;;;;;5097001;28;8794;-65
2021/11/19 13:06:53;;;;;;;;;61.00;50.50;13.10;55.80;;;;;;5096860;28;8759;-67
2021/11/19 13:09:20;;;;;;;;;62.25;51.25;13.40;54.90;;;;;;5096923;28;9445;-66
2021/11/19 13:11:52;;;;;;;;;61.00;49.00;13.60;54.40;;;;;;5096804;28;8791;-66